Rio Branco の空港の天気 - METARとTAF

リオブランコ国際空港 ( SBRB / RBR ) - ブラジル アクレ州、Rio Branco
飛行場実況気象(Metar)
観測時間01/16 14:00 ACT (01/16 19:00 UTC)
風向・風速西北西 2m/s
視程10km以上
天気現象
全天の8割程度の雲 雲底高度 1100m
全天の4割程度の雲 雲底高度 3050m
気温33℃
湿度59%
気圧1010hPa
METARSBRB 161900Z 29004KT 9999 BKN036 SCT100 33/24 Q1010
過去の天気等 Google飛行場航空写真 Wunderground天気予報

過去48時間のMETAR

飛行場予報(TAF)
発表時間: 1/16 10:50 ACT (1/16 15:50 UTC)
予報対象時間: 16日13時 ACT ~ 17日1時 ACT
風向・風速北西 3m/s
視程7000m
全天の4割程度の雲 雲底高度 520m
16日13時 ACT ~ 16日16時 ACT に徐々に
風向・風速北北西 3m/s
天気現象
全天の4割程度の雲 雲底高度 760m
少しの積乱雲 雲底高度 910m
16日16時 ACT ~ 16日19時 ACT に徐々に
風向・風速北 3m/s
天気現象運行に影響にある天気現象が終了
全天の4割程度の雲 雲底高度 520m
TAF SBRB 161550Z 1618/1706 32005KT 7000 SCT017 TX31/1618Z TN23/1706Z
BECMG 1618/1621 34006KT TS SCT025 FEW030CB
BECMG 1621/1624 36005KT NSW SCT017 RMK PGW